Terminal Aerodrome Forecast
Issued by NWS Cleveland, OH

Home | Current Version | Previous Version | Graphics & Text | Print | Product List | Glossary Off
Versions: 1 2 3 4 5 6 7 8 9 10 11 12 13 14 15 16 17 18 19 20 21 22 23 24 25 26 27

250
FTUS41 KCLE 052052 AAB
TAFCLE
TAF AMD
KCLE 052052Z 0521/0624 26008KT P6SM OVC025
     FM052300 16003KT P6SM SCT035 BKN150
     FM061200 10012KT P6SM SCT025 OVC045
      TEMPO 0612/0616 OVC025
     FM061600 12012KT 5SM -RA BR OVC012
     FM062000 12008KT 3SM -RA BR OVC008=

USA.gov is the U.S. government's official web portal to all federal, state and local government web resources and services.